Schoonebeek, Netherlands
Current Conditions -  °F | °C
As of 4:55 PM on Wednesday 28 Jan 2015 (Local Time) from EHGG Reporting Station
Light Rain Light Rain  
Wind Chill: 30°   Ceiling: 1500
Heat Index: 39°   Visibility: 6mi
Dew Point: 37°   Wind: 18mph
Humidity: 93%   Direction: 270°W
Pressure: 29.23"   Gusts: NA
Location:  52.66°N, 6.88°E
Report Text: EHGG 281555Z AUTO 27016KT 230V310 9999 -RADZ SCT010 SCT013BKN015CB 04/03 Q0990 REDZ NOSIG
Loading
Personal Weather Stations






























Interactive Weather Map New forecast layout! Learn more

10-Day Weather Forecast

Advertisements
Track Severe Weather on mobile